Time;durP1;ratioP1;P1;durP2;ratioP2;P2;SDS_P1;SDS_P2;PMS_P1;PMS_P2;Temp;Humidity;BMP_temperature;BMP_pressure;BME280_temperature;BME280_humidity;BME280_pressure;Samples;Min_cycle;Max_cycle;Signal;HPM_P1;HPM_P2
2022/07/03 00:14:10;;;;;;;8.73;5.08;;;;;;;16.87;100.00;101196.72;740401;1154;116288;-78
2022/07/03 00:29:13;;;;;;;5.73;3.80;;;;;;;16.65;100.00;101164.41;740664;1153;115940;-78
2022/07/03 00:44:15;;;;;;;7.55;3.10;;;;;;;16.43;100.00;101166.56;740120;1153;114566;-77
2022/07/03 00:59:18;;;;;;;9.33;4.08;;;;;;;16.29;100.00;101159.16;740349;1155;115989;-77
2022/07/03 01:14:48;;;;;;;7.43;4.73;;;;;;;15.97;100.00;101140.16;739728;1153;114470;-77
2022/07/03 01:30:07;;;;;;;13.30;6.17;;;;;;;15.85;100.00;101119.34;739926;1155;115921;-77
2022/07/03 01:45:11;;;;;;;12.05;4.00;;;;;;;15.68;100.00;101127.09;739988;1155;115125;-77
2022/07/03 02:00:19;;;;;;;9.35;4.10;;;;;;;15.59;100.00;101123.51;740175;1155;115293;-77
2022/07/03 02:15:34;;;;;;;7.50;3.13;;;;;;;15.46;100.00;101115.91;740125;1153;115878;-77
2022/07/03 02:30:42;;;;;;;6.90;4.17;;;;;;;15.33;100.00;101115.42;739853;1153;116409;-77
2022/07/03 03:01:33;;;;;;;13.65;5.68;;;;;;;15.14;100.00;101111.06;740143;1155;115911;-77
2022/07/03 03:16:41;;;;;;;9.53;5.08;;;;;;;15.23;100.00;101117.27;740412;1153;116012;-76
2022/07/03 03:31:43;;;;;;;11.88;4.40;;;;;;;15.33;100.00;101099.56;739749;1155;116064;-77
2022/07/03 03:46:46;;;;;;;10.40;4.23;;;;;;;15.63;100.00;101106.36;739825;1155;115947;-76
2022/07/03 04:01:48;;;;;;;7.17;3.97;;;;;;;16.09;100.00;101102.90;740310;1155;115506;-75
2022/07/03 04:16:51;;;;;;;6.90;3.83;;;;;;;16.65;100.00;101106.14;740309;1154;114356;-75
2022/07/03 04:31:53;;;;;;;4.83;3.63;;;;;;;17.12;100.00;101103.13;740643;1153;115079;-75
2022/07/03 04:46:55;;;;;;;5.75;3.58;;;;;;;17.77;100.00;101096.38;740505;1155;115106;-74
2022/07/03 05:01:57;;;;;;;5.13;2.90;;;;;;;18.34;100.00;101094.80;740091;1153;115427;-74
2022/07/03 05:17:00;;;;;;;7.57;3.30;;;;;;;18.93;100.00;101104.39;739819;1153;115444;-74
2022/07/03 05:32:03;;;;;;;5.08;2.75;;;;;;;19.53;100.00;101091.51;739872;1154;115655;-76
2022/07/03 05:47:05;;;;;;;6.33;2.30;;;;;;;20.07;100.00;101094.20;740181;1155;115371;-75
2022/07/03 06:02:07;;;;;;;1.70;1.20;;;;;;;20.63;96.05;101093.04;740223;1155;115621;-77
2022/07/03 06:17:09;;;;;;;2.90;1.35;;;;;;;21.07;92.65;101089.56;740215;1155;114352;-75
2022/07/03 06:32:12;;;;;;;2.78;1.23;;;;;;;21.57;91.04;101099.66;740031;1153;114721;-75
2022/07/03 06:47:14;;;;;;;3.30;1.30;;;;;;;22.00;89.46;101089.01;740353;1155;114412;-73
2022/07/03 07:02:16;;;;;;;4.28;1.40;;;;;;;22.56;87.22;101082.08;741003;1155;114980;-87
2022/07/03 07:17:18;;;;;;;3.58;1.03;;;;;;;22.76;82.58;101066.99;740691;1154;114200;-87
2022/07/03 07:32:20;;;;;;;2.23;1.08;;;;;;;23.59;79.97;101052.70;740577;1155;114701;-87
2022/07/03 07:47:23;;;;;;;1.90;1.00;;;;;;;24.35;77.38;101055.23;740692;1155;115364;-74
2022/07/03 08:17:46;;;;;;;1.88;0.80;;;;;;;25.24;70.93;101040.33;740526;1155;114456;-76
2022/07/03 14:35:12;;;;;;;0.58;0.40;;;;;;;32.51;54.46;100751.14;713968;1174;589153;-77
2022/07/03 14:50:15;;;;;;;1.30;0.70;;;;;;;31.56;53.25;100741.39;714997;1174;113189;-78
2022/07/03 15:05:18;;;;;;;3.10;1.90;;;;;;;31.52;53.11;100735.69;714523;1174;115257;-78
2022/07/03 15:20:26;;;;;;;0.97;0.83;;;;;;;31.68;52.79;100720.31;714814;1174;115056;-85
2022/07/03 15:35:34;;;;;;;7.13;4.85;;;;;;;31.55;53.41;100712.66;714293;1174;115501;-74
2022/07/03 15:50:59;;;;;;;4.65;2.80;;;;;;;31.30;52.12;100692.49;714607;1174;115014;-75
2022/07/03 16:06:04;;;;;;;2.05;1.05;;;;;;;30.80;52.65;100689.22;715806;1174;114037;-77
2022/07/03 16:21:07;;;;;;;1.60;1.00;;;;;;;30.36;52.71;100668.58;714464;1174;113851;-76
2022/07/03 16:36:20;;;;;;;1.00;0.50;;;;;;;29.57;52.94;100661.85;714077;1174;114425;-74
2022/07/03 16:51:28;;;;;;;1.40;0.73;;;;;;;29.77;53.83;100652.34;714590;1174;114813;-73
2022/07/03 17:06:34;;;;;;;4.90;1.03;;;;;;;29.77;54.04;100652.34;714336;1174;113973;-78
2022/07/03 17:21:42;;;;;;;0.95;0.83;;;;;;;29.30;55.00;100651.83;714434;1174;115360;-76
2022/07/03 17:36:45;;;;;;;1.10;0.70;;;;;;;28.98;55.22;100648.95;714697;1174;115343;-77
2022/07/03 17:51:50;;;;;;;3.55;0.78;;;;;;;28.64;55.00;100644.41;714645;1174;114818;-75
2022/07/03 18:06:54;;;;;;;1.60;0.83;;;;;;;28.36;56.86;100640.75;714588;1174;117377;-76
2022/07/03 18:21:59;;;;;;;1.15;0.85;;;;;;;27.88;56.92;100636.66;714567;1174;115458;-78
2022/07/03 18:37:08;;;;;;;3.75;2.88;;;;;;;27.07;58.47;100624.03;715244;1174;114448;-78
2022/07/03 18:52:19;;;;;;;2.67;2.23;;;;;;;26.21;61.00;100633.34;715251;1174;113711;-75
2022/07/03 19:07:29;;;;;;;4.35;2.13;;;;;;;25.01;63.53;100632.98;715164;1174;113980;-75
2022/07/03 19:22:32;;;;;;;6.65;2.88;;;;;;;24.14;65.59;100643.59;715184;1174;113927;-74
2022/07/03 19:37:36;;;;;;;4.90;2.23;;;;;;;23.52;69.59;100636.09;715624;1174;115564;-75
2022/07/03 19:52:39;;;;;;;4.60;2.28;;;;;;;23.32;72.16;100641.50;715296;1174;113919;-75
2022/07/03 20:07:41;;;;;;;3.00;2.50;;;;;;;22.83;73.96;100638.28;715647;1174;115442;-73
2022/07/03 20:22:44;;;;;;;10.18;4.28;;;;;;;22.55;74.92;100636.66;724279;1174;115398;-73
2022/07/03 20:37:47;;;;;;;8.73;5.75;;;;;;;22.25;77.71;100639.69;714890;1174;114661;-74
2022/07/03 21:09:10;;;;;;;5.75;3.13;;;;;;;21.50;80.33;100634.33;714296;1174;114564;-73
2022/07/03 21:24:16;;;;;;;17.15;8.78;;;;;;;21.34;83.05;100627.48;714591;1174;114834;-75
2022/07/03 21:39:19;;;;;;;9.47;3.67;;;;;;;21.02;84.56;100614.59;714986;1174;114534;-74
2022/07/03 21:54:21;;;;;;;9.78;5.20;;;;;;;20.74;86.14;100598.64;714656;1174;115357;-73
2022/07/03 22:24:45;;;;;;;13.45;5.50;;;;;;;20.43;86.74;100576.66;715205;1174;113953;-73
2022/07/03 22:39:48;;;;;;;5.83;3.43;;;;;;;20.00;87.20;100576.69;714353;1174;114246;-74
2022/07/03 22:54:51;;;;;;;5.60;3.67;;;;;;;19.62;88.40;100568.90;714246;1174;114434;-73
2022/07/03 23:09:53;;;;;;;7.45;3.88;;;;;;;19.34;89.83;100552.83;714078;1174;115032;-73
2022/07/03 23:24:55;;;;;;;7.10;4.75;;;;;;;19.04;91.27;100537.72;713989;1174;114429;-73
2022/07/03 23:39:57;;;;;;;6.05;4.33;;;;;;;18.90;92.12;100538.59;714039;1173;113954;-74
2022/07/03 23:55:13;;;;;;;7.13;4.28;;;;;;;18.69;93.25;100513.52;713994;1174;114079;-73
